首页
METAR-TAF:

METAR-TAF

机场 :

加蒂諾, 魁北克, 加拿大

纬度: 45-31N, 经度: 075-34W, 海拔: 64米

当前天气观测

该预报发布于1小时和0分钟前的16:00 UTC
风速2节,风向多变
温度 -9°C
湿度 48%
气压 1029 hPa
能見度: 24.1公里
天空无云

METAR: CYND 171600Z VRB02KT 15SM SKC M09/M18 A3038 RMK SLP294

时间: 12:00 (17:00 UTC)

预报

该预报发布于3小时和22分钟前的13:38 UTC
预报有效从17日的 14点(UTC)到 18日的 02点(UTC)
风速5节,风向北转西北
能見度: 10公里
天空无云

TAF: CYND 171338Z 1714/1802 33005KT P6SM SKC RMK NXT FCST BY 171800Z

超过4000个机场的气象观测和天气预报(METAR&TAF报告)。

可查询的气象台以黄色和红色小点在地图上表示。

将鼠标移到小点上方,可查看气象台名称。

然后点击查看天气观测和预报。

如需切换地图:点击带黑十字的绿色按钮放大地图;点击带横线的绿色按钮缩小地图;或者点击绿色箭头查看邻近地区的地图。


METAR-TAF: